KBGM/BGM METAR and TAF weather

Enter ICAO airport designator
Station Type Date Time Source
KBGM METAR 2019/10/20 19:31 UTC NOAA

KBGM 201931Z AUTO 17005KT 10SM OVC010 11/09 A2997 RMK AO2 T01060089 $


Station Type Date Time Source
KBGM Decoded METAR 2019/10/20 19:31 UTC NOAA

BINGHAMTON REGIONAL AIRPORT, NY, United States (KBGM) 42-12N 75-59W 492M
Oct 20, 2019 - 03:31 PM EDT / 2019.10.20 1931 UTC
Wind: from the S (170 degrees) at 6 MPH (5 KT):0
Visibility: 10 mile(s):0
Sky conditions: overcast
Temperature: 51.1 F (10.6 C)
Dew Point: 48.0 F (8.9 C)
Relative Humidity: 89%
Pressure (altimeter): 29.97 in. Hg (1014 hPa)
ob: KBGM 201931Z AUTO 17005KT 10SM OVC010 11/09 A2997 RMK AO2 T01060089
cycle: 19

Station Type Date Time Source
KBGM TAF 2019/10/20 19:15 UTC NOAA

TAF
AMD KBGM 201912Z 2019/2118 17008KT P6SM -RA SCT007 OVC050
TEMPO 2019/2021 BKN005 OVC040
FM202200 14003KT P6SM BKN100 OVC250
FM210200 VRB03KT P6SM SCT200
FM211400 09005KT P6SM SCT250

Example: see airport list